Time;durP1;ratioP1;P1;durP2;ratioP2;P2;SDS_P1;SDS_P2;PMS_P1;PMS_P2;Temp;Humidity;BMP_temperature;BMP_pressure;BME280_temperature;BME280_humidity;BME280_pressure;Samples;Min_cycle;Max_cycle;Signal;HPM_P1;HPM_P2
2022/07/31 00:02:10;;;;;;;4.30;2.90;;;;;;;16.33;96.32;99589.73;129960;1268;362802;-69
2022/07/31 00:05:16;;;;;;;3.60;2.90;;;;;;;16.33;95.54;99588.48;130281;1268;108514;-69
2022/07/31 00:08:21;;;;;;;4.00;2.80;;;;;;;16.34;95.85;99587.36;130249;1268;108750;-70
2022/07/31 00:11:26;;;;;;;3.30;2.50;;;;;;;16.36;95.74;99589.85;130246;1268;109325;-70
2022/07/31 00:14:32;;;;;;;4.40;2.80;;;;;;;16.38;95.78;99590.46;130281;1268;108535;-69
2022/07/31 00:17:39;;;;;;;3.70;3.00;;;;;;;16.37;95.48;99589.30;130251;1268;109298;-69
2022/07/31 00:20:44;;;;;;;5.00;2.90;;;;;;;16.38;95.48;99583.80;130258;1268;108216;-70
2022/07/31 00:23:50;;;;;;;4.50;2.90;;;;;;;16.37;96.42;99582.80;130261;1268;108618;-72
2022/07/31 00:26:55;;;;;;;5.40;2.90;;;;;;;16.33;95.84;99577.63;130271;1268;110395;-70
2022/07/31 00:30:01;;;;;;;5.10;3.30;;;;;;;16.37;95.79;99577.41;130298;1268;107684;-70
2022/07/31 00:33:06;;;;;;;4.00;3.00;;;;;;;16.35;96.47;99576.51;130336;1268;108987;-72
2022/07/31 00:36:13;;;;;;;4.60;2.60;;;;;;;16.30;96.53;99573.57;130517;1268;109555;-70
2022/07/31 00:39:19;;;;;;;4.70;2.90;;;;;;;16.22;97.40;99568.39;130394;1268;109076;-71
2022/07/31 00:42:26;;;;;;;4.90;2.90;;;;;;;16.09;98.30;99568.05;130245;1267;108851;-68
2022/07/31 00:45:32;;;;;;;3.80;2.90;;;;;;;15.94;98.76;99567.95;130300;1267;108723;-70
2022/07/31 00:48:37;;;;;;;4.10;2.70;;;;;;;15.86;98.13;99565.38;130381;1268;110313;-68
2022/07/31 00:51:43;;;;;;;4.80;3.00;;;;;;;15.80;99.13;99564.29;130387;1268;108801;-67
2022/07/31 00:54:48;;;;;;;4.10;2.60;;;;;;;15.78;98.46;99559.86;130234;1268;108718;-68
2022/07/31 00:57:54;;;;;;;4.10;3.30;;;;;;;15.80;98.61;99557.83;130223;1267;108706;-67
2022/07/31 01:00:59;;;;;;;4.50;2.70;;;;;;;15.79;98.90;99561.77;130352;1268;108870;-69
2022/07/31 01:04:05;;;;;;;4.00;2.90;;;;;;;15.75;98.74;99555.42;130352;1268;108844;-69
2022/07/31 01:07:10;;;;;;;4.40;2.50;;;;;;;15.73;99.38;99558.52;130256;1268;109573;-67
2022/07/31 01:10:23;;;;;;;4.90;2.60;;;;;;;15.70;99.34;99553.44;130239;1268;108738;-67
2022/07/31 01:13:37;;;;;;;3.00;2.50;;;;;;;15.70;99.63;99551.86;130390;1266;107596;-69
2022/07/31 01:16:47;;;;;;;2.80;2.20;;;;;;;15.71;98.84;99554.43;130366;1268;108519;-69
2022/07/31 01:19:54;;;;;;;2.90;2.50;;;;;;;15.72;99.38;99550.96;130334;1268;109581;-70
2022/07/31 01:23:41;;;;;;;3.20;2.60;;;;;;;15.69;98.51;99546.33;130361;1268;109075;-69
2022/07/31 01:27:09;;;;;;;4.20;3.10;;;;;;;15.74;98.75;99548.59;130132;1268;108565;-70
2022/07/31 01:30:15;;;;;;;4.30;2.60;;;;;;;15.75;98.77;99545.20;130562;1268;108774;-71
2022/07/31 01:33:23;;;;;;;2.60;2.40;;;;;;;15.80;98.37;99540.73;130382;1266;108955;-71
2022/07/31 01:36:33;;;;;;;2.90;2.40;;;;;;;15.84;98.28;99544.13;130379;1268;109160;-73
2022/07/31 01:39:43;;;;;;;3.40;2.10;;;;;;;15.88;98.83;99541.91;130301;1268;108662;-71
2022/07/31 01:42:53;;;;;;;4.60;2.30;;;;;;;15.88;98.38;99541.99;130353;1268;107842;-71
2022/07/31 01:46:03;;;;;;;4.00;2.50;;;;;;;15.91;98.15;99539.89;130457;1268;108676;-73
2022/07/31 01:49:10;;;;;;;3.10;2.50;;;;;;;15.93;98.89;99538.52;130419;1268;108844;-71
2022/07/31 01:52:17;;;;;;;2.40;2.20;;;;;;;15.90;98.23;99534.92;130502;1268;108623;-71
2022/07/31 01:55:24;;;;;;;3.00;2.50;;;;;;;15.94;98.52;99533.77;130520;1268;108964;-71
2022/07/31 01:58:33;;;;;;;2.90;2.70;;;;;;;15.94;98.95;99529.92;130294;1267;109018;-72
2022/07/31 02:01:42;;;;;;;4.10;2.10;;;;;;;15.95;97.92;99530.41;130471;1267;108764;-73
2022/07/31 02:04:49;;;;;;;2.90;2.20;;;;;;;15.98;98.03;99519.52;130304;1268;108975;-70
2022/07/31 02:07:56;;;;;;;2.30;2.10;;;;;;;16.00;97.89;99515.88;130367;1268;108929;-69
2022/07/31 02:11:06;;;;;;;2.80;2.40;;;;;;;16.02;98.04;99507.31;130320;1268;108632;-70
2022/07/31 02:14:12;;;;;;;3.70;2.60;;;;;;;15.97;98.29;99510.53;130153;1268;108674;-70
2022/07/31 02:17:20;;;;;;;3.60;2.30;;;;;;;15.90;98.15;99507.48;130384;1268;108669;-69
2022/07/31 02:20:45;;;;;;;3.30;2.50;;;;;;;15.87;98.40;99501.44;130192;1268;108869;-70
2022/07/31 02:23:51;;;;;;;3.50;2.90;;;;;;;15.90;98.28;99504.17;130504;1268;109002;-71
2022/07/31 02:26:57;;;;;;;3.90;2.60;;;;;;;15.86;98.33;99497.09;130471;1268;108726;-74
2022/07/31 02:30:04;;;;;;;2.50;2.30;;;;;;;15.84;98.47;99494.42;130452;1267;107666;-74
2022/07/31 02:33:13;;;;;;;4.10;2.60;;;;;;;15.87;98.48;99484.04;130331;1267;107664;-76
2022/07/31 02:36:22;;;;;;;4.00;3.00;;;;;;;15.85;98.35;99481.92;130530;1267;108951;-75
2022/07/31 02:39:29;;;;;;;3.50;2.50;;;;;;;15.86;98.13;99480.36;130449;1267;108892;-74
2022/07/31 02:42:35;;;;;;;3.90;2.50;;;;;;;15.89;98.19;99479.16;130453;1267;108669;-74
2022/07/31 02:45:42;;;;;;;2.90;2.30;;;;;;;15.87;97.99;99478.33;130539;1268;108642;-75
2022/07/31 02:48:48;;;;;;;3.70;2.60;;;;;;;15.90;98.19;99475.02;130367;1268;108876;-74
2022/07/31 02:51:55;;;;;;;4.10;2.90;;;;;;;15.92;98.28;99471.39;130502;1268;107310;-75
2022/07/31 02:55:01;;;;;;;2.60;2.30;;;;;;;15.89;98.21;99470.67;130459;1268;108805;-75
2022/07/31 02:58:07;;;;;;;3.40;2.50;;;;;;;15.91;98.16;99466.66;130526;1268;108981;-73
2022/07/31 03:01:13;;;;;;;4.70;2.80;;;;;;;15.90;98.37;99468.77;130455;1268;106926;-73
2022/07/31 03:04:19;;;;;;;4.10;2.60;;;;;;;15.89;98.49;99467.41;130487;1268;108998;-73
2022/07/31 03:07:25;;;;;;;4.30;2.80;;;;;;;15.90;98.05;99468.08;130323;1268;108827;-72
2022/07/31 03:10:30;;;;;;;3.60;2.70;;;;;;;15.89;98.03;99466.54;130445;1268;108840;-69
2022/07/31 03:13:43;;;;;;;3.30;2.60;;;;;;;15.88;98.13;99464.93;130320;1268;108757;-69
2022/07/31 03:16:50;;;;;;;3.40;2.50;;;;;;;15.80;98.79;99459.75;130399;1268;109072;-69
2022/07/31 03:19:56;;;;;;;3.50;2.40;;;;;;;15.77;98.88;99455.36;130366;1268;110421;-68
2022/07/31 03:23:02;;;;;;;3.80;2.60;;;;;;;15.76;98.82;99458.56;130388;1268;107547;-67
2022/07/31 03:26:10;;;;;;;2.60;2.10;;;;;;;15.77;98.83;99454.75;130409;1268;107792;-68
2022/07/31 03:29:15;;;;;;;2.60;2.40;;;;;;;15.77;99.09;99457.40;130413;1268;108865;-67
2022/07/31 03:32:21;;;;;;;2.80;2.20;;;;;;;15.80;98.40;99458.42;130334;1268;107602;-69
2022/07/31 03:35:27;;;;;;;2.30;2.10;;;;;;;15.82;98.04;99456.39;130375;1267;108673;-70
2022/07/31 03:38:33;;;;;;;4.40;2.30;;;;;;;15.87;98.16;99457.52;130361;1267;108731;-70
2022/07/31 03:41:41;;;;;;;3.60;2.30;;;;;;;15.88;98.00;99460.75;130267;1268;108721;-69
2022/07/31 03:44:48;;;;;;;3.10;2.10;;;;;;;15.86;98.16;99457.44;130361;1268;108771;-69
2022/07/31 03:47:54;;;;;;;2.30;2.00;;;;;;;15.90;98.04;99455.54;130347;1268;108625;-70
2022/07/31 03:50:59;;;;;;;2.20;2.00;;;;;;;15.94;97.92;99454.45;130134;1268;109631;-67
2022/07/31 03:54:06;;;;;;;2.50;2.30;;;;;;;15.99;97.90;99454.93;130365;1268;108858;-67
2022/07/31 03:57:22;;;;;;;2.20;2.00;;;;;;;16.01;98.21;99453.33;130210;1268;108658;-69
2022/07/31 04:00:28;;;;;;;3.20;2.30;;;;;;;15.90;99.11;99456.19;130358;1268;108137;-69
2022/07/31 04:03:34;;;;;;;2.50;1.90;;;;;;;15.79;99.44;99449.83;130414;1268;108890;-72
2022/07/31 04:07:08;;;;;;;2.20;2.00;;;;;;;15.71;99.62;99449.22;130519;1268;108749;-70
2022/07/31 04:10:13;;;;;;;2.10;1.90;;;;;;;15.67;99.66;99443.20;130359;1268;108691;-69
2022/07/31 04:13:18;;;;;;;2.10;1.90;;;;;;;15.67;99.65;99442.17;130365;1268;108761;-69
2022/07/31 04:16:24;;;;;;;1.70;1.60;;;;;;;15.68;99.78;99440.65;130275;1268;108727;-70
2022/07/31 04:19:30;;;;;;;1.80;1.70;;;;;;;15.67;99.96;99438.28;130312;1268;109571;-70
2022/07/31 04:22:36;;;;;;;2.10;1.90;;;;;;;15.69;99.87;99434.81;130242;1268;108814;-70
2022/07/31 04:25:44;;;;;;;1.80;1.70;;;;;;;15.72;99.75;99434.70;130289;1268;108739;-69
2022/07/31 04:29:13;;;;;;;1.70;1.60;;;;;;;15.76;99.85;99435.05;130277;1267;109486;-71
2022/07/31 04:32:18;;;;;;;1.80;1.70;;;;;;;15.83;99.35;99437.27;130330;1268;109606;-70
2022/07/31 04:35:29;;;;;;;3.00;1.90;;;;;;;15.91;99.68;99436.86;130393;1268;108783;-71
2022/07/31 04:38:35;;;;;;;2.10;1.80;;;;;;;15.89;99.70;99431.45;130215;1268;108707;-70
2022/07/31 04:41:40;;;;;;;2.20;1.90;;;;;;;15.85;99.75;99433.06;130187;1268;108970;-70
2022/07/31 04:44:46;;;;;;;1.80;1.70;;;;;;;15.86;99.84;99435.02;130318;1268;109595;-69
2022/07/31 04:47:51;;;;;;;2.00;1.80;;;;;;;15.89;99.30;99438.27;130117;1268;109524;-71
2022/07/31 04:50:56;;;;;;;2.00;1.80;;;;;;;15.95;99.42;99434.88;130434;1268;107717;-70
2022/07/31 04:54:02;;;;;;;2.10;1.50;;;;;;;15.98;98.97;99434.66;130322;1270;108666;-71
2022/07/31 04:57:08;;;;;;;1.70;1.60;;;;;;;15.98;99.63;99431.21;130396;1268;108715;-70
2022/07/31 05:00:15;;;;;;;2.60;1.50;;;;;;;15.95;99.62;99437.77;130362;1270;108876;-70
2022/07/31 05:03:21;;;;;;;1.80;1.60;;;;;;;15.94;99.74;99434.92;130489;1267;108968;-70
2022/07/31 05:06:34;;;;;;;1.40;1.30;;;;;;;15.93;99.78;99436.16;130057;1268;108768;-70
2022/07/31 05:09:39;;;;;;;1.50;1.40;;;;;;;15.97;99.55;99433.33;130161;1268;107383;-70
2022/07/31 05:12:46;;;;;;;1.60;1.50;;;;;;;16.00;99.60;99439.09;130375;1268;108881;-70
2022/07/31 05:15:51;;;;;;;1.90;1.70;;;;;;;15.96;99.92;99436.98;130289;1268;108495;-70
2022/07/31 05:18:57;;;;;;;1.90;1.70;;;;;;;15.94;99.84;99434.17;130143;1268;107798;-68
2022/07/31 05:22:21;;;;;;;1.90;1.70;;;;;;;15.95;99.86;99434.88;130157;1268;108698;-69
2022/07/31 05:25:47;;;;;;;2.40;1.80;;;;;;;15.98;99.80;99440.41;130190;1268;108749;-70
2022/07/31 05:28:54;;;;;;;2.00;1.70;;;;;;;16.01;99.58;99443.64;130365;1268;108720;-69
2022/07/31 05:32:00;;;;;;;2.60;1.80;;;;;;;16.02;99.75;99443.52;130115;1268;108773;-71
2022/07/31 05:35:07;;;;;;;2.70;2.00;;;;;;;16.00;99.79;99445.46;130343;1268;108912;-70
2022/07/31 05:38:12;;;;;;;2.20;1.80;;;;;;;16.01;99.92;99450.73;130188;1268;107645;-73
2022/07/31 05:41:39;;;;;;;2.50;2.10;;;;;;;16.01;99.86;99446.34;130037;1268;107840;-69
2022/07/31 05:45:14;;;;;;;2.40;2.20;;;;;;;16.04;99.81;99449.85;130099;1268;108677;-70
2022/07/31 05:48:20;;;;;;;3.10;2.20;;;;;;;16.03;99.89;99450.69;130126;1268;108795;-71
2022/07/31 05:51:25;;;;;;;2.40;2.20;;;;;;;16.01;99.97;99450.11;130147;1268;108836;-72
2022/07/31 05:54:31;;;;;;;2.60;2.10;;;;;;;16.03;99.95;99447.50;130176;1268;108836;-73
2022/07/31 05:57:55;;;;;;;2.70;2.20;;;;;;;16.04;100.00;99449.69;130257;1268;108885;-72
2022/07/31 06:01:01;;;;;;;2.40;2.20;;;;;;;16.04;100.00;99449.65;130128;1268;107845;-69
2022/07/31 06:04:06;;;;;;;2.40;2.20;;;;;;;16.03;99.96;99454.23;130067;1269;108650;-68
2022/07/31 06:07:17;;;;;;;;;;;;;;;16.03;100.00;99450.30;130240;1268;109751;-70
2022/07/31 06:10:24;;;;;;;3.20;2.40;;;;;;;16.03;99.98;99453.91;130327;1268;108767;-71
2022/07/31 06:13:30;;;;;;;2.30;2.10;;;;;;;15.98;100.00;99461.52;130321;1268;108430;-69
2022/07/31 06:16:39;;;;;;;2.20;2.00;;;;;;;15.91;100.00;99459.79;130109;1268;107745;-67
2022/07/31 06:19:44;;;;;;;2.40;1.90;;;;;;;15.88;100.00;99462.65;129997;1271;108566;-69
2022/07/31 06:22:50;;;;;;;2.00;1.80;;;;;;;15.85;100.00;99462.03;130174;1268;108792;-74
2022/07/31 06:25:55;;;;;;;1.90;1.70;;;;;;;15.87;100.00;99465.47;130096;1268;107662;-69
2022/07/31 06:29:01;;;;;;;1.70;1.60;;;;;;;15.89;99.98;99465.50;130100;1268;109586;-71
2022/07/31 06:32:08;;;;;;;1.70;1.50;;;;;;;15.88;100.00;99467.83;130077;1268;108785;-69
2022/07/31 06:35:14;;;;;;;2.40;1.50;;;;;;;15.82;100.00;99467.85;129930;1268;108875;-70
2022/07/31 06:38:39;;;;;;;2.10;1.40;;;;;;;15.77;100.00;99464.92;129919;1268;108791;-70
2022/07/31 06:42:21;;;;;;;2.00;1.40;;;;;;;15.76;100.00;99470.17;129864;1268;107382;-69
2022/07/31 06:45:44;;;;;;;1.40;1.30;;;;;;;15.75;100.00;99471.17;130109;1268;108783;-71
2022/07/31 06:49:12;;;;;;;1.60;1.40;;;;;;;15.74;100.00;99476.30;130074;1268;109541;-71
2022/07/31 06:52:18;;;;;;;1.50;1.30;;;;;;;15.70;100.00;99471.55;130104;1268;108901;-71
2022/07/31 06:55:24;;;;;;;1.40;1.30;;;;;;;15.73;100.00;99475.14;130096;1268;108634;-71
2022/07/31 06:58:30;;;;;;;2.40;1.50;;;;;;;15.76;100.00;99470.31;130112;1268;108873;-72
2022/07/31 07:01:36;;;;;;;1.30;1.20;;;;;;;15.76;100.00;99471.54;130128;1268;108635;-69
2022/07/31 07:04:41;;;;;;;1.50;1.30;;;;;;;15.78;100.00;99467.37;129883;1268;108639;-69
2022/07/31 07:07:47;;;;;;;1.60;1.20;;;;;;;15.78;100.00;99472.67;130066;1268;108789;-72
2022/07/31 07:10:53;;;;;;;1.40;1.10;;;;;;;15.80;100.00;99468.64;130168;1268;108691;-70
2022/07/31 07:14:05;;;;;;;1.70;1.50;;;;;;;15.77;100.00;99469.27;130164;1268;108645;-68
2022/07/31 07:17:10;;;;;;;3.40;1.10;;;;;;;15.78;100.00;99468.07;130211;1268;108837;-71
2022/07/31 07:20:15;;;;;;;2.10;1.20;;;;;;;15.80;100.00;99468.20;130207;1268;108769;-71
2022/07/31 07:23:22;;;;;;;1.40;1.30;;;;;;;15.79;100.00;99468.06;130239;1268;108867;-71
2022/07/31 07:27:06;;;;;;;1.70;1.20;;;;;;;15.81;100.00;99467.08;129601;1274;108798;-69
2022/07/31 07:30:12;;;;;;;1.30;1.00;;;;;;;15.84;100.00;99468.15;129233;1274;109465;-77
2022/07/31 07:33:18;;;;;;;1.20;1.00;;;;;;;15.85;100.00;99465.92;130322;1268;108749;-75
2022/07/31 07:36:26;;;;;;;1.20;1.00;;;;;;;15.84;100.00;99463.60;130334;1268;108624;-73
2022/07/31 07:39:36;;;;;;;1.00;0.90;;;;;;;15.90;100.00;99469.73;130365;1268;108802;-74
2022/07/31 07:42:42;;;;;;;1.30;1.20;;;;;;;15.90;100.00;99462.77;130023;1268;108971;-74
2022/07/31 07:45:47;;;;;;;1.20;1.10;;;;;;;15.91;100.00;99467.79;130354;1268;108696;-69
2022/07/31 07:48:53;;;;;;;1.40;1.00;;;;;;;15.90;100.00;99470.30;130207;1268;108749;-69
2022/07/31 07:52:13;;;;;;;1.40;1.10;;;;;;;15.93;100.00;99473.29;130237;1268;108778;-70
2022/07/31 07:55:57;;;;;;;1.20;1.10;;;;;;;15.99;100.00;99475.79;130179;1268;109957;-69
2022/07/31 07:59:21;;;;;;;1.10;0.90;;;;;;;15.96;100.00;99476.89;130072;1268;109654;-71
2022/07/31 08:02:50;;;;;;;1.20;1.10;;;;;;;15.94;100.00;99476.69;130005;1268;109633;-73
2022/07/31 08:05:56;;;;;;;1.50;1.30;;;;;;;15.99;100.00;99479.83;130361;1268;107100;-70
2022/07/31 08:09:01;;;;;;;1.90;1.00;;;;;;;16.03;100.00;99481.65;130155;1267;107731;-69
2022/07/31 08:12:26;;;;;;;1.90;1.40;;;;;;;16.12;100.00;99480.52;130229;1268;110400;-74
2022/07/31 08:15:55;;;;;;;1.80;1.50;;;;;;;16.09;100.00;99477.42;130107;1268;108843;-69
2022/07/31 08:19:09;;;;;;;1.60;1.20;;;;;;;16.08;100.00;99479.20;130353;1268;108689;-72
2022/07/31 08:22:14;;;;;;;1.60;1.10;;;;;;;16.11;100.00;99477.38;130493;1268;108692;-70
2022/07/31 08:25:20;;;;;;;1.40;1.30;;;;;;;16.14;99.99;99472.85;130064;1268;108792;-67
2022/07/31 08:28:27;;;;;;;1.20;1.10;;;;;;;16.16;99.96;99472.45;130229;1268;108077;-70
2022/07/31 08:31:32;;;;;;;3.10;1.40;;;;;;;16.19;100.00;99472.29;130145;1268;108892;-69
2022/07/31 08:35:15;;;;;;;2.20;1.30;;;;;;;16.23;100.00;99475.83;130086;1268;108740;-71
2022/07/31 08:38:21;;;;;;;1.20;1.10;;;;;;;16.29;99.97;99476.82;130211;1268;109439;-69
2022/07/31 08:41:46;;;;;;;1.20;1.10;;;;;;;16.36;99.76;99477.05;130044;1268;109840;-68
2022/07/31 08:44:53;;;;;;;1.30;1.00;;;;;;;16.38;99.23;99478.66;130024;1268;108738;-69
2022/07/31 08:48:07;;;;;;;1.10;0.90;;;;;;;16.40;99.37;99481.19;130088;1268;108744;-69
2022/07/31 08:51:18;;;;;;;0.90;0.90;;;;;;;16.44;99.43;99481.02;130207;1268;108652;-69
2022/07/31 08:54:37;;;;;;;1.60;1.10;;;;;;;16.48;99.14;99479.94;130291;1268;108854;-73
2022/07/31 08:57:46;;;;;;;0.90;0.90;;;;;;;16.49;98.99;99478.10;130331;1268;108720;-69
2022/07/31 09:00:52;;;;;;;0.90;0.80;;;;;;;16.52;98.94;99480.13;130113;1268;108726;-69
2022/07/31 09:03:58;;;;;;;2.70;0.90;;;;;;;16.52;98.85;99479.02;130991;1268;111755;-70
2022/07/31 09:07:05;;;;;;;1.50;0.90;;;;;;;16.52;98.85;99481.63;130319;1268;109028;-69
2022/07/31 09:10:22;;;;;;;2.00;0.90;;;;;;;16.47;98.86;99484.86;130308;1267;108705;-69
2022/07/31 09:13:29;;;;;;;1.70;0.80;;;;;;;16.47;99.11;99488.67;130141;1268;109595;-69
2022/07/31 09:16:46;;;;;;;1.00;0.90;;;;;;;16.49;98.93;99494.27;130055;1268;108814;-69
2022/07/31 09:19:53;;;;;;;1.20;1.10;;;;;;;16.52;99.09;99494.01;130176;1268;109035;-69
2022/07/31 09:23:10;;;;;;;2.20;1.20;;;;;;;16.54;99.28;99497.65;130121;1268;108667;-69
2022/07/31 09:26:20;;;;;;;2.80;0.90;;;;;;;16.53;99.05;99494.87;130059;1268;109032;-70
2022/07/31 09:29:39;;;;;;;0.70;0.70;;;;;;;16.55;99.27;99494.63;130141;1268;108699;-69
2022/07/31 09:32:46;;;;;;;1.00;0.90;;;;;;;16.58;99.27;99495.81;130058;1268;108853;-68
2022/07/31 09:36:01;;;;;;;1.50;0.80;;;;;;;16.59;99.05;99497.27;130131;1268;108806;-70
2022/07/31 09:39:14;;;;;;;0.80;0.70;;;;;;;16.59;99.00;99493.54;130105;1268;108746;-71
2022/07/31 09:42:47;;;;;;;1.00;0.70;;;;;;;16.63;98.98;99499.61;130119;1268;110534;-70
2022/07/31 09:46:03;;;;;;;0.90;0.90;;;;;;;16.64;99.22;99496.05;130122;1268;109660;-70
2022/07/31 09:49:09;;;;;;;1.50;0.90;;;;;;;16.59;98.98;99496.23;130162;1268;109100;-70
2022/07/31 09:52:21;;;;;;;0.90;0.70;;;;;;;16.56;98.93;99500.96;130412;1267;108969;-70
2022/07/31 09:55:27;;;;;;;0.80;0.70;;;;;;;16.55;98.79;99503.24;130279;1268;107494;-70
2022/07/31 09:58:32;;;;;;;1.00;0.80;;;;;;;16.55;98.97;99497.36;130188;1268;108918;-69
2022/07/31 10:01:40;;;;;;;1.10;0.80;;;;;;;16.53;98.98;99501.72;130234;1268;108914;-70
2022/07/31 10:04:47;;;;;;;1.10;0.60;;;;;;;16.49;99.13;99498.83;130339;1267;108835;-69
2022/07/31 10:07:56;;;;;;;0.70;0.70;;;;;;;16.47;99.17;99494.89;130401;1268;108743;-69
2022/07/31 10:11:13;;;;;;;6.00;0.80;;;;;;;16.53;99.34;99496.15;130124;1268;108823;-71
2022/07/31 10:14:31;;;;;;;0.70;0.60;;;;;;;16.52;99.33;99498.77;130374;1267;108953;-70
2022/07/31 10:17:41;;;;;;;0.80;0.60;;;;;;;16.56;99.30;99500.80;130151;1268;108974;-69
2022/07/31 10:20:56;;;;;;;0.60;0.60;;;;;;;16.62;99.20;99500.11;130024;1268;109593;-70
2022/07/31 10:24:12;;;;;;;0.70;0.50;;;;;;;16.73;98.73;99502.56;130252;1268;108601;-68
2022/07/31 10:27:18;;;;;;;1.10;0.50;;;;;;;16.76;98.89;99503.92;130259;1267;108824;-68
2022/07/31 10:30:28;;;;;;;0.50;0.50;;;;;;;16.83;98.93;99502.81;130242;1268;108824;-69
2022/07/31 10:33:35;;;;;;;0.60;0.60;;;;;;;16.88;98.61;99504.42;130609;1268;109144;-68
2022/07/31 10:37:33;;;;;;;0.40;0.40;;;;;;;16.92;98.32;99507.48;130056;1268;109575;-67
2022/07/31 10:41:05;;;;;;;0.70;0.50;;;;;;;16.88;98.31;99507.33;130145;1268;110238;-68
2022/07/31 10:44:16;;;;;;;0.90;0.40;;;;;;;16.86;98.24;99506.17;130083;1268;108884;-68
2022/07/31 10:47:37;;;;;;;2.00;0.40;;;;;;;16.87;98.24;99507.20;130150;1268;108935;-68
2022/07/31 10:51:02;;;;;;;0.40;0.40;;;;;;;16.87;98.11;99516.52;130153;1268;109609;-68
2022/07/31 10:54:47;;;;;;;0.60;0.50;;;;;;;16.89;97.94;99519.23;129409;1274;108763;-70
2022/07/31 10:58:30;;;;;;;0.40;0.30;;;;;;;16.85;97.99;99523.98;129509;1272;107714;-70
2022/07/31 11:01:44;;;;;;;0.50;0.40;;;;;;;16.88;98.09;99523.67;130111;1268;108872;-69
2022/07/31 11:05:13;;;;;;;0.40;0.40;;;;;;;16.85;97.85;99523.55;130163;1268;108881;-68
2022/07/31 11:08:46;;;;;;;1.00;0.70;;;;;;;16.80;97.92;99524.27;130157;1267;109585;-68
2022/07/31 11:12:20;;;;;;;1.00;0.50;;;;;;;16.73;98.33;99527.81;130241;1268;110300;-68
2022/07/31 11:15:36;;;;;;;0.60;0.40;;;;;;;16.64;98.74;99529.77;130087;1268;108963;-68
2022/07/31 11:19:02;;;;;;;0.70;0.70;;;;;;;16.53;99.17;99538.34;130143;1267;108867;-69
2022/07/31 11:22:16;;;;;;;0.80;0.60;;;;;;;16.42;99.84;99542.37;130713;1267;108587;-70
2022/07/31 11:25:22;;;;;;;0.30;0.20;;;;;;;16.37;100.00;99544.11;130116;1267;109678;-68
2022/07/31 11:28:29;;;;;;;0.60;0.40;;;;;;;16.33;100.00;99542.97;130147;1268;108711;-68
2022/07/31 11:31:34;;;;;;;0.60;0.40;;;;;;;16.28;99.99;99547.06;130178;1267;108341;-70
2022/07/31 11:34:47;;;;;;;0.50;0.30;;;;;;;16.21;100.00;99546.02;130054;1268;108559;-69
2022/07/31 11:37:53;;;;;;;0.40;0.40;;;;;;;16.20;100.00;99543.08;130172;1268;108846;-71
2022/07/31 11:40:58;;;;;;;0.40;0.40;;;;;;;16.20;100.00;99544.94;130241;1268;108709;-67
2022/07/31 11:44:05;;;;;;;0.50;0.40;;;;;;;16.23;100.00;99547.89;130191;1268;108717;-70
2022/07/31 11:47:10;;;;;;;0.50;0.50;;;;;;;16.22;100.00;99556.54;130110;1268;106796;-68
2022/07/31 11:50:16;;;;;;;1.50;0.60;;;;;;;16.21;100.00;99560.39;130107;1267;108876;-69
2022/07/31 11:53:21;;;;;;;1.80;0.80;;;;;;;16.21;100.00;99563.95;130165;1268;108164;-71
2022/07/31 11:56:28;;;;;;;2.10;0.60;;;;;;;16.17;100.00;99564.21;130337;1268;108724;-69
2022/07/31 11:59:35;;;;;;;0.70;0.60;;;;;;;16.13;100.00;99562.96;130218;1267;109712;-76
2022/07/31 12:02:45;;;;;;;0.80;0.50;;;;;;;16.09;100.00;99575.84;130241;1268;213767;-74
2022/07/31 12:05:52;;;;;;;0.50;0.40;;;;;;;16.05;100.00;99568.09;130484;1268;108783;-74
2022/07/31 12:08:58;;;;;;;0.60;0.40;;;;;;;16.05;100.00;99574.92;130322;1267;107669;-77
2022/07/31 12:12:04;;;;;;;0.70;0.60;;;;;;;16.05;100.00;99573.98;130326;1268;109078;-77
2022/07/31 12:15:18;;;;;;;1.00;0.50;;;;;;;16.07;100.00;99575.73;130455;1267;108957;-76
2022/07/31 12:18:23;;;;;;;1.10;0.70;;;;;;;16.08;100.00;99573.27;130429;1267;108924;-75
2022/07/31 12:21:33;;;;;;;0.80;0.50;;;;;;;16.09;100.00;99579.02;130306;1268;108585;-75
2022/07/31 12:24:39;;;;;;;1.20;0.80;;;;;;;16.08;100.00;99578.11;130346;1267;107818;-75
2022/07/31 12:27:44;;;;;;;0.70;0.60;;;;;;;16.14;100.00;99569.95;130288;1268;108868;-76
2022/07/31 12:30:59;;;;;;;2.00;0.80;;;;;;;16.26;100.00;99568.30;130273;1268;108926;-76
2022/07/31 12:34:05;;;;;;;1.40;0.80;;;;;;;16.38;100.00;99574.23;130312;1268;108645;-74
2022/07/31 12:37:11;;;;;;;1.20;0.50;;;;;;;16.40;100.00;99567.40;130259;1268;108758;-76
2022/07/31 12:40:27;;;;;;;0.70;0.50;;;;;;;16.42;100.00;99574.45;130406;1267;107712;-76
2022/07/31 12:43:33;;;;;;;0.60;0.50;;;;;;;16.42;100.00;99573.52;130307;1268;108731;-76
2022/07/31 12:46:39;;;;;;;0.80;0.40;;;;;;;16.42;100.00;99573.02;130380;1268;108954;-79
2022/07/31 12:49:47;;;;;;;0.40;0.40;;;;;;;16.43;100.00;99569.91;130555;1267;109122;-80
2022/07/31 12:52:52;;;;;;;0.60;0.40;;;;;;;16.41;100.00;99572.41;130497;1268;108841;-79
2022/07/31 12:55:58;;;;;;;0.60;0.40;;;;;;;16.42;100.00;99570.25;130416;1267;108949;-77
2022/07/31 12:59:04;;;;;;;0.40;0.30;;;;;;;16.52;100.00;99572.83;130389;1267;108959;-79
2022/07/31 13:02:10;;;;;;;0.30;0.30;;;;;;;16.57;100.00;99573.19;130339;1268;109093;-78
2022/07/31 13:05:16;;;;;;;0.50;0.40;;;;;;;16.59;100.00;99580.42;130297;1268;108742;-79
2022/07/31 13:08:21;;;;;;;0.30;0.30;;;;;;;16.56;99.99;99581.38;130250;1268;107198;-77
2022/07/31 13:11:29;;;;;;;0.40;0.40;;;;;;;16.50;100.00;99581.14;130303;1268;108831;-76
2022/07/31 13:14:34;;;;;;;0.70;0.40;;;;;;;16.55;100.00;99581.23;130330;1267;108728;-77
2022/07/31 13:17:39;;;;;;;0.60;0.30;;;;;;;16.53;100.00;99590.38;130424;1267;108881;-75
2022/07/31 13:20:45;;;;;;;1.00;0.20;;;;;;;16.56;99.99;99589.42;130720;1267;108948;-76
2022/07/31 13:23:50;;;;;;;0.30;0.20;;;;;;;16.58;99.55;99598.04;130375;1267;108600;-77
2022/07/31 13:26:57;;;;;;;1.00;0.30;;;;;;;16.55;99.30;99597.27;130288;1268;108940;-78
2022/07/31 13:30:03;;;;;;;0.30;0.30;;;;;;;16.51;99.42;99598.59;130335;1268;108855;-79
2022/07/31 13:33:08;;;;;;;0.30;0.20;;;;;;;16.52;99.42;99599.33;130377;1268;108892;-79
2022/07/31 13:36:14;;;;;;;0.30;0.30;;;;;;;16.52;99.52;99603.09;130387;1268;108833;-76
2022/07/31 13:39:19;;;;;;;0.40;0.40;;;;;;;16.52;99.66;99598.59;130330;1268;108535;-77
2022/07/31 13:42:25;;;;;;;0.20;0.20;;;;;;;16.54;99.67;99589.76;130278;1268;108894;-78
2022/07/31 13:45:31;;;;;;;0.40;0.30;;;;;;;16.53;99.36;99599.87;130214;1268;107832;-79
2022/07/31 13:48:36;;;;;;;0.40;0.30;;;;;;;16.44;99.67;99603.18;130354;1268;108249;-80
2022/07/31 13:51:42;;;;;;;0.50;0.30;;;;;;;16.41;99.89;99605.50;130293;1268;107221;-78
2022/07/31 13:54:47;;;;;;;0.30;0.30;;;;;;;16.38;99.97;99611.46;130313;1268;108914;-83
2022/07/31 13:57:53;;;;;;;1.50;0.70;;;;;;;16.35;100.00;99618.17;130365;1268;108923;-75
2022/07/31 14:00:59;;;;;;;0.30;0.30;;;;;;;16.33;100.00;99614.61;130375;1268;108773;-77
2022/07/31 14:04:05;;;;;;;0.90;0.40;;;;;;;16.31;100.00;99618.66;130349;1268;109032;-81
2022/07/31 14:07:10;;;;;;;0.50;0.20;;;;;;;16.29;100.00;99616.60;130359;1268;108906;-76
2022/07/31 14:10:16;;;;;;;1.00;0.50;;;;;;;16.22;100.00;99618.04;130246;1268;108639;-80
2022/07/31 14:13:21;;;;;;;0.30;0.20;;;;;;;16.17;100.00;99624.47;130280;1266;108761;-75
2022/07/31 14:16:27;;;;;;;0.40;0.40;;;;;;;16.20;100.00;99624.66;130349;1268;108841;-73
2022/07/31 14:19:32;;;;;;;0.60;0.50;;;;;;;16.18;100.00;99628.09;130331;1268;109110;-74
2022/07/31 14:22:37;;;;;;;1.00;0.40;;;;;;;16.12;100.00;99626.19;130327;1268;108763;-75
2022/07/31 14:25:43;;;;;;;0.40;0.30;;;;;;;16.08;100.00;99628.14;130219;1268;108942;-78
2022/07/31 14:28:49;;;;;;;1.70;0.70;;;;;;;16.10;100.00;99627.39;130236;1268;109137;-77
2022/07/31 14:31:54;;;;;;;1.60;0.70;;;;;;;16.09;100.00;99630.45;130292;1268;108894;-77